createdAt,value
2019-05-25T00:00:43.244Z,2.10
2019-05-25T00:01:48.744Z,2.20
2019-05-25T00:02:54.264Z,2.10
2019-05-25T00:03:59.775Z,2.30
2019-05-25T00:05:05.281Z,2.40
2019-05-25T00:06:10.793Z,2.30
2019-05-25T00:07:16.325Z,2.20
2019-05-25T00:08:21.827Z,2.50
2019-05-25T00:09:27.330Z,2.30
2019-05-25T00:10:32.850Z,2.20
2019-05-25T00:11:38.366Z,2.20
2019-05-25T00:12:43.879Z,2.20
2019-05-25T00:13:49.390Z,2.30
2019-05-25T00:14:54.894Z,2.40
2019-05-25T00:16:00.413Z,2.60
2019-05-25T00:17:05.932Z,2.40
2019-05-25T00:18:11.446Z,2.20
2019-05-25T00:19:16.952Z,2.30
2019-05-25T00:20:22.467Z,2.30
2019-05-25T00:21:27.970Z,2.40
2019-05-25T00:22:33.486Z,2.30
2019-05-25T00:23:38.995Z,2.40
2019-05-25T00:24:44.522Z,2.10
2019-05-25T00:25:50.015Z,2.20
2019-05-25T00:26:55.538Z,2.60
2019-05-25T00:28:01.042Z,2.20
2019-05-25T00:29:06.553Z,2.10
2019-05-25T00:30:12.072Z,2.00
2019-05-25T00:31:17.579Z,2.40
2019-05-25T00:32:23.100Z,2.50
2019-05-25T00:33:28.604Z,2.60
2019-05-25T00:34:34.118Z,2.50
2019-05-25T00:35:39.625Z,2.60
2019-05-25T00:36:45.147Z,2.40
2019-05-25T00:37:50.658Z,2.20
2019-05-25T00:38:56.169Z,2.00
2019-05-25T00:40:01.709Z,2.20
2019-05-25T00:41:07.194Z,2.40
2019-05-25T00:42:12.703Z,2.30
2019-05-25T00:43:18.223Z,2.40
2019-05-25T00:44:23.724Z,2.20
2019-05-25T00:45:29.239Z,2.20
2019-05-25T00:46:34.751Z,2.40
2019-05-25T00:47:40.267Z,2.30
2019-05-25T00:48:45.777Z,2.10
2019-05-25T00:49:51.304Z,2.10
2019-05-25T00:50:56.807Z,2.10
2019-05-25T00:52:02.329Z,2.30
2019-05-25T00:53:07.858Z,2.50
2019-05-25T00:54:27.037Z,2.10
2019-05-25T00:55:18.857Z,2.30
2019-05-25T00:56:24.362Z,2.10
2019-05-25T00:57:29.873Z,2.10
2019-05-25T00:58:35.381Z,2.20
2019-05-25T00:59:40.899Z,2.10
2019-05-25T01:00:46.419Z,2.20
2019-05-25T01:01:51.923Z,2.20
2019-05-25T01:02:57.432Z,2.30
2019-05-25T01:04:02.952Z,2.30
2019-05-25T01:05:08.456Z,2.10
2019-05-25T01:06:13.965Z,2.20
2019-05-25T01:07:19.478Z,2.30
2019-05-25T01:08:24.985Z,2.30
2019-05-25T01:09:30.510Z,2.40
2019-05-25T01:10:36.031Z,2.00
2019-05-25T01:11:41.527Z,2.50
2019-05-25T01:12:47.043Z,2.40
2019-05-25T01:13:52.552Z,2.60
2019-05-25T01:14:58.064Z,2.40
2019-05-25T01:16:03.577Z,2.30
2019-05-25T01:17:09.088Z,2.10
2019-05-25T01:18:14.607Z,2.40
2019-05-25T01:19:20.110Z,2.30
2019-05-25T01:20:25.626Z,2.70
2019-05-25T01:21:31.136Z,2.40
2019-05-25T01:22:36.640Z,2.40
2019-05-25T01:23:42.161Z,2.50
2019-05-25T01:24:47.677Z,2.20
2019-05-25T01:25:53.186Z,2.40
2019-05-25T01:26:58.698Z,2.40
2019-05-25T01:28:04.206Z,2.40
2019-05-25T01:29:09.716Z,2.30
2019-05-25T01:30:15.227Z,2.60
2019-05-25T01:31:20.748Z,2.60
2019-05-25T01:32:26.247Z,2.40
2019-05-25T01:33:31.756Z,2.30
2019-05-25T01:34:37.276Z,2.40
2019-05-25T01:35:42.788Z,2.40
2019-05-25T01:36:48.298Z,2.50
2019-05-25T01:37:53.819Z,2.60
2019-05-25T01:38:59.351Z,2.60
2019-05-25T01:40:04.832Z,2.20
2019-05-25T01:41:10.340Z,2.40
2019-05-25T01:42:15.865Z,2.50
2019-05-25T01:43:21.381Z,2.50
2019-05-25T01:44:26.873Z,2.50
2019-05-25T01:45:32.398Z,2.70
2019-05-25T01:46:37.903Z,2.30
2019-05-25T01:47:43.415Z,2.30
2019-05-25T01:48:48.923Z,2.80
2019-05-25T01:49:54.435Z,2.90
2019-05-25T01:50:59.947Z,2.50
2019-05-25T01:52:05.452Z,2.80
2019-05-25T01:53:11.700Z,2.80
2019-05-25T01:54:16.479Z,2.60
2019-05-25T01:55:21.993Z,2.50
2019-05-25T01:56:27.513Z,2.60
2019-05-25T01:57:33.025Z,2.50
2019-05-25T01:58:38.526Z,2.60
2019-05-25T01:59:44.051Z,2.70
2019-05-25T02:00:49.557Z,2.50
2019-05-25T02:01:55.057Z,2.40
2019-05-25T02:03:00.576Z,2.80
2019-05-25T02:04:06.088Z,2.70
2019-05-25T02:05:11.604Z,2.90
2019-05-25T02:06:17.110Z,2.60
2019-05-25T02:07:22.619Z,2.60
2019-05-25T02:08:28.132Z,2.90
2019-05-25T02:09:33.640Z,2.70
2019-05-25T02:10:39.152Z,2.50
2019-05-25T02:11:44.659Z,2.60
2019-05-25T02:12:50.179Z,2.70
2019-05-25T02:13:55.700Z,2.60
2019-05-25T02:15:01.198Z,2.70
2019-05-25T02:16:06.743Z,3.20
2019-05-25T02:17:12.225Z,3.10
2019-05-25T02:18:17.738Z,3.00
2019-05-25T02:19:23.251Z,3.10
2019-05-25T02:20:28.747Z,3.10
2019-05-25T02:21:34.284Z,3.00
2019-05-25T02:22:39.784Z,2.90
2019-05-25T02:23:45.285Z,3.00
2019-05-25T02:24:50.813Z,2.70
2019-05-25T02:25:56.305Z,3.30
2019-05-25T02:27:01.820Z,3.50
2019-05-25T02:28:07.339Z,3.30
2019-05-25T02:29:12.843Z,3.30
2019-05-25T02:30:18.365Z,3.60
2019-05-25T02:31:23.866Z,3.80
2019-05-25T02:32:29.390Z,3.60
2019-05-25T02:33:34.885Z,3.70
2019-05-25T02:34:40.405Z,3.90
2019-05-25T02:35:45.920Z,3.30
2019-05-25T02:36:51.428Z,3.80
2019-05-25T02:37:56.940Z,3.50
2019-05-25T02:39:02.444Z,3.60
2019-05-25T02:40:07.951Z,3.40
2019-05-25T02:41:13.460Z,3.70
2019-05-25T02:42:18.984Z,3.80
2019-05-25T02:43:24.493Z,3.80
2019-05-25T02:44:29.993Z,3.40
2019-05-25T02:45:35.511Z,3.70
2019-05-25T02:46:41.023Z,3.50
2019-05-25T02:47:46.540Z,4.00
2019-05-25T02:48:52.051Z,3.70
2019-05-25T02:49:57.549Z,3.80
2019-05-25T02:51:03.072Z,4.00
2019-05-25T02:52:08.574Z,4.30
2019-05-25T02:53:14.089Z,3.70
2019-05-25T02:54:19.598Z,4.00
2019-05-25T02:55:34.354Z,3.30
2019-05-25T02:56:30.619Z,3.00
2019-05-25T02:57:36.130Z,3.00
2019-05-25T02:58:41.672Z,2.90
2019-05-25T02:59:47.152Z,2.90
2019-05-25T03:00:52.666Z,3.20
2019-05-25T03:01:58.183Z,3.50
2019-05-25T03:03:03.699Z,3.80
2019-05-25T03:04:09.200Z,3.50
2019-05-25T03:05:14.709Z,3.40
2019-05-25T03:06:20.218Z,3.70
2019-05-25T03:07:25.745Z,3.50
2019-05-25T03:08:31.248Z,3.70
2019-05-25T03:09:36.753Z,3.70
2019-05-25T03:10:42.261Z,3.90
2019-05-25T03:11:47.775Z,3.70
2019-05-25T03:12:53.285Z,3.90
2019-05-25T03:13:58.796Z,3.60
2019-05-25T03:15:04.371Z,3.60
2019-05-25T03:16:09.911Z,3.40
2019-05-25T03:17:15.323Z,3.50
2019-05-25T03:18:20.843Z,3.90
2019-05-25T03:19:26.345Z,3.90
2019-05-25T03:20:31.865Z,4.00
2019-05-25T03:21:37.373Z,3.40
2019-05-25T03:22:42.885Z,3.60
2019-05-25T03:23:48.393Z,3.20
2019-05-25T03:24:53.915Z,3.60
2019-05-25T03:25:59.417Z,3.60
2019-05-25T03:27:04.927Z,3.50
2019-05-25T03:28:10.433Z,3.50
2019-05-25T03:29:15.945Z,3.90
2019-05-25T03:30:21.470Z,3.70
2019-05-25T03:31:26.976Z,3.50
2019-05-25T03:32:32.487Z,3.90
2019-05-25T03:33:38.003Z,3.60
2019-05-25T03:34:43.503Z,3.80
2019-05-25T03:35:49.025Z,3.50
2019-05-25T03:36:54.520Z,3.80
2019-05-25T03:38:00.053Z,3.50
2019-05-25T03:39:05.557Z,3.30
2019-05-25T03:40:11.057Z,3.90
2019-05-25T03:41:16.573Z,3.50
2019-05-25T03:42:22.083Z,3.70
2019-05-25T03:43:27.587Z,3.90
2019-05-25T03:44:33.101Z,3.70
2019-05-25T03:45:38.607Z,3.70
2019-05-25T03:46:44.128Z,4.10
2019-05-25T03:47:49.634Z,3.80
2019-05-25T03:48:55.141Z,4.10
2019-05-25T03:50:00.654Z,3.90
2019-05-25T03:51:06.162Z,4.30
2019-05-25T03:52:11.675Z,4.10
2019-05-25T03:53:17.184Z,3.80
2019-05-25T03:54:22.692Z,4.50
2019-05-25T03:55:28.205Z,4.50
2019-05-25T03:56:33.723Z,4.80
2019-05-25T03:57:39.227Z,4.60
2019-05-25T03:58:44.740Z,4.50
2019-05-25T03:59:50.250Z,4.60
2019-05-25T04:00:55.771Z,4.70
2019-05-25T04:02:01.275Z,4.50
2019-05-25T04:03:06.787Z,4.70
2019-05-25T04:04:12.293Z,4.70
2019-05-25T04:05:17.809Z,5.10
2019-05-25T04:06:23.364Z,4.90
2019-05-25T04:07:28.825Z,4.90
2019-05-25T04:08:34.342Z,4.80
2019-05-25T04:09:39.847Z,4.90
2019-05-25T04:10:45.361Z,5.40
2019-05-25T04:11:50.866Z,4.90
2019-05-25T04:12:56.414Z,5.20
2019-05-25T04:14:01.890Z,4.80
2019-05-25T04:15:07.552Z,5.30
2019-05-25T04:16:12.904Z,5.00
2019-05-25T04:17:18.429Z,5.10
2019-05-25T04:18:23.933Z,5.50
2019-05-25T04:19:29.440Z,5.30
2019-05-25T04:20:34.952Z,5.60
2019-05-25T04:21:40.510Z,6.30
2019-05-25T04:22:45.972Z,5.00
2019-05-25T04:23:51.484Z,5.10
2019-05-25T04:24:57.020Z,5.00
2019-05-25T04:26:02.517Z,5.00
2019-05-25T04:27:08.026Z,5.30
2019-05-25T04:28:13.529Z,4.90
2019-05-25T04:29:19.044Z,5.40
2019-05-25T04:30:24.590Z,5.10
2019-05-25T04:31:30.078Z,4.90
2019-05-25T04:32:35.582Z,4.70
2019-05-25T04:33:41.091Z,4.80
2019-05-25T04:34:46.592Z,4.90
2019-05-25T04:35:52.108Z,5.20
2019-05-25T04:36:57.614Z,4.90
2019-05-25T04:38:03.139Z,5.10
2019-05-25T04:39:08.643Z,4.80
2019-05-25T04:40:14.151Z,4.70
2019-05-25T04:41:19.699Z,5.00
2019-05-25T04:42:25.177Z,4.70
2019-05-25T04:43:30.688Z,4.50
2019-05-25T04:44:36.195Z,4.90
2019-05-25T04:45:41.709Z,4.70
2019-05-25T04:46:47.234Z,4.70
2019-05-25T04:47:52.730Z,5.00
2019-05-25T04:48:58.265Z,4.80
2019-05-25T04:50:03.755Z,4.70
2019-05-25T04:51:09.275Z,4.70
2019-05-25T04:52:14.778Z,4.80
2019-05-25T04:53:20.285Z,4.70
2019-05-25T04:54:25.804Z,4.70
2019-05-25T04:55:31.315Z,4.90
2019-05-25T04:56:39.755Z,4.70
2019-05-25T04:57:42.340Z,5.00
2019-05-25T04:58:47.847Z,4.60
2019-05-25T04:59:53.359Z,4.80
2019-05-25T05:00:58.882Z,4.90
2019-05-25T05:02:04.375Z,4.60
2019-05-25T05:03:09.891Z,4.90
2019-05-25T05:04:15.420Z,4.80
2019-05-25T05:05:20.915Z,4.80
2019-05-25T05:06:26.427Z,5.00
2019-05-25T05:07:31.941Z,5.00
2019-05-25T05:08:37.442Z,4.90
2019-05-25T05:09:42.954Z,5.50
2019-05-25T05:10:48.467Z,5.00
2019-05-25T05:11:53.984Z,5.80
2019-05-25T05:12:59.497Z,5.10
2019-05-25T05:14:05.009Z,4.80
2019-05-25T05:15:10.537Z,5.30
2019-05-25T05:16:16.029Z,5.10
2019-05-25T05:17:21.547Z,5.40
2019-05-25T05:18:27.052Z,5.80
2019-05-25T05:19:32.562Z,5.70
2019-05-25T05:20:38.095Z,5.70
2019-05-25T05:21:43.588Z,5.30
2019-05-25T05:22:49.106Z,5.60
2019-05-25T05:23:54.607Z,5.40
2019-05-25T05:25:00.138Z,5.30
2019-05-25T05:26:05.641Z,5.30
2019-05-25T05:27:11.145Z,5.70
2019-05-25T05:28:16.660Z,5.20
2019-05-25T05:29:22.171Z,5.20
2019-05-25T05:30:27.685Z,5.30
2019-05-25T05:31:33.196Z,5.40
2019-05-25T05:32:38.754Z,5.40
2019-05-25T05:33:44.217Z,5.00
2019-05-25T05:34:49.729Z,5.30
2019-05-25T05:35:55.247Z,5.70
2019-05-25T05:37:00.766Z,5.60
2019-05-25T05:38:06.277Z,5.60
2019-05-25T05:39:11.776Z,5.90
2019-05-25T05:40:17.288Z,6.10
2019-05-25T05:41:22.796Z,5.80
2019-05-25T05:42:28.315Z,5.70
2019-05-25T05:43:33.828Z,5.40
2019-05-25T05:44:39.346Z,5.50
2019-05-25T05:45:44.850Z,5.60
2019-05-25T05:46:50.361Z,5.40
2019-05-25T05:47:55.869Z,6.40
2019-05-25T05:49:01.385Z,6.00
2019-05-25T05:50:06.896Z,5.70
2019-05-25T05:51:12.411Z,5.90
2019-05-25T05:52:17.925Z,5.80
2019-05-25T05:53:23.433Z,5.90
2019-05-25T05:54:28.943Z,5.70
2019-05-25T05:55:34.454Z,5.60
2019-05-25T05:56:39.990Z,6.00
2019-05-25T05:57:45.491Z,5.90
2019-05-25T05:58:50.991Z,6.00
2019-05-25T05:59:56.508Z,5.50
2019-05-25T06:01:02.023Z,5.80
2019-05-25T06:02:07.556Z,5.50
2019-05-25T06:03:13.040Z,5.90
2019-05-25T06:04:18.562Z,5.90
2019-05-25T06:05:24.060Z,5.70
2019-05-25T06:06:29.580Z,5.70
2019-05-25T06:07:35.089Z,5.90
2019-05-25T06:08:40.598Z,6.00
2019-05-25T06:09:46.120Z,6.00
2019-05-25T06:10:51.625Z,5.70
2019-05-25T06:11:57.136Z,5.80
2019-05-25T06:13:02.643Z,5.80
2019-05-25T06:14:08.156Z,5.40
2019-05-25T06:15:13.670Z,5.90
2019-05-25T06:16:19.181Z,5.40
2019-05-25T06:17:24.694Z,5.40
2019-05-25T06:18:30.209Z,5.50
2019-05-25T06:19:35.719Z,5.40
2019-05-25T06:20:41.231Z,5.40
2019-05-25T06:21:46.755Z,5.50
2019-05-25T06:22:52.257Z,5.30
2019-05-25T06:23:57.773Z,5.40
2019-05-25T06:25:03.288Z,5.40
2019-05-25T06:26:08.798Z,5.50
2019-05-25T06:27:26.442Z,5.50
2019-05-25T06:28:22.419Z,5.40
2019-05-25T06:29:25.336Z,5.40
2019-05-25T06:30:30.839Z,5.80
2019-05-25T06:31:36.359Z,5.50
2019-05-25T06:32:41.856Z,5.20
2019-05-25T06:33:47.376Z,6.00
2019-05-25T06:34:52.891Z,5.80
2019-05-25T06:35:58.418Z,5.50
2019-05-25T06:37:03.914Z,5.50
2019-05-25T06:38:09.429Z,5.00
2019-05-25T06:39:14.933Z,5.50
2019-05-25T06:40:20.454Z,5.60
2019-05-25T06:41:25.956Z,5.30
2019-05-25T06:42:31.466Z,5.20
2019-05-25T06:43:36.993Z,5.40
2019-05-25T06:44:42.514Z,4.80
2019-05-25T06:45:48.010Z,5.60
2019-05-25T06:46:53.524Z,4.80
2019-05-25T06:47:59.038Z,5.20
2019-05-25T06:49:04.560Z,5.40
2019-05-25T06:50:10.050Z,5.30
2019-05-25T06:51:15.591Z,5.10
2019-05-25T06:52:21.078Z,4.80
2019-05-25T06:53:26.583Z,5.20
2019-05-25T06:54:32.109Z,5.40
2019-05-25T06:55:37.613Z,5.50
2019-05-25T06:56:43.134Z,4.70
2019-05-25T06:57:48.638Z,4.80
2019-05-25T06:58:54.167Z,4.70
2019-05-25T06:59:59.671Z,4.70
2019-05-25T07:01:05.171Z,4.90
2019-05-25T07:02:10.696Z,4.90
2019-05-25T07:03:16.207Z,5.10
2019-05-25T07:04:21.710Z,4.60
2019-05-25T07:05:27.221Z,4.60
2019-05-25T07:06:32.733Z,4.40
2019-05-25T07:07:38.246Z,5.00
2019-05-25T07:08:43.760Z,4.50
2019-05-25T07:09:49.271Z,4.30
2019-05-25T07:10:54.780Z,4.50
2019-05-25T07:12:00.293Z,4.50
2019-05-25T07:13:05.803Z,4.80
2019-05-25T07:14:11.320Z,4.20
2019-05-25T07:15:16.829Z,4.50
2019-05-25T07:16:22.345Z,4.20
2019-05-25T07:17:27.854Z,4.50
2019-05-25T07:18:35.422Z,4.40
2019-05-25T07:19:38.881Z,4.50
2019-05-25T07:20:44.395Z,4.40
2019-05-25T07:21:49.905Z,4.10
2019-05-25T07:22:55.431Z,3.70
2019-05-25T07:24:00.929Z,3.80
2019-05-25T07:25:06.463Z,3.60
2019-05-25T07:26:11.957Z,4.20
2019-05-25T07:27:17.474Z,4.20
2019-05-25T07:28:22.987Z,4.40
2019-05-25T07:29:28.508Z,4.60
2019-05-25T07:30:34.035Z,4.30
2019-05-25T07:31:39.519Z,4.00
2019-05-25T07:32:45.024Z,4.30
2019-05-25T07:33:50.544Z,4.40
2019-05-25T07:34:56.057Z,4.40
2019-05-25T07:36:01.574Z,4.30
2019-05-25T07:37:07.083Z,3.90
2019-05-25T07:38:12.596Z,4.30
2019-05-25T07:39:18.102Z,4.00
2019-05-25T07:40:23.615Z,3.90
2019-05-25T07:41:29.137Z,3.80
2019-05-25T07:42:34.640Z,3.70
2019-05-25T07:43:40.152Z,3.70
2019-05-25T07:44:45.665Z,3.70
2019-05-25T07:45:51.190Z,3.60
2019-05-25T07:46:56.690Z,3.30
2019-05-25T07:48:02.213Z,3.10
2019-05-25T07:49:07.715Z,3.10
2019-05-25T07:50:13.235Z,3.40
2019-05-25T07:51:18.741Z,2.60
2019-05-25T07:52:24.264Z,2.50
2019-05-25T07:53:29.761Z,2.50
2019-05-25T07:54:35.281Z,2.40
2019-05-25T07:55:40.799Z,2.30
2019-05-25T07:56:46.312Z,2.20
2019-05-25T07:57:51.821Z,2.40
2019-05-25T07:58:57.331Z,2.70
2019-05-25T08:00:02.845Z,3.30
2019-05-25T08:01:08.353Z,3.00
2019-05-25T08:02:13.869Z,3.00
2019-05-25T08:03:19.392Z,2.50
2019-05-25T08:04:24.893Z,2.80
2019-05-25T08:05:30.406Z,2.90
2019-05-25T08:06:35.927Z,3.00
2019-05-25T08:07:41.452Z,3.00
2019-05-25T08:08:46.940Z,3.00
2019-05-25T08:09:52.458Z,2.80
2019-05-25T08:10:57.965Z,3.10
2019-05-25T08:12:03.496Z,2.80
2019-05-25T08:13:08.998Z,2.70
2019-05-25T08:14:14.510Z,2.70
2019-05-25T08:15:20.045Z,2.80
2019-05-25T08:16:25.534Z,2.30
2019-05-25T08:17:31.048Z,2.30
2019-05-25T08:18:36.564Z,2.50
2019-05-25T08:19:42.074Z,2.20
2019-05-25T08:20:47.666Z,2.30
2019-05-25T08:21:53.106Z,2.50
2019-05-25T08:22:58.614Z,2.70
2019-05-25T08:24:04.130Z,2.20
2019-05-25T08:25:09.648Z,2.50
2019-05-25T08:26:15.156Z,2.30
2019-05-25T08:27:20.679Z,2.20
2019-05-25T08:28:32.593Z,2.30
2019-05-25T08:29:31.693Z,2.10
2019-05-25T08:30:37.209Z,2.00
2019-05-25T08:31:42.716Z,2.40
2019-05-25T08:32:48.235Z,2.20
2019-05-25T08:33:53.745Z,2.10
2019-05-25T08:34:59.263Z,2.30
2019-05-25T08:36:04.781Z,2.10
2019-05-25T08:37:10.294Z,2.10
2019-05-25T08:38:15.819Z,2.10
2019-05-25T08:39:21.312Z,2.30
2019-05-25T08:40:26.824Z,2.20
2019-05-25T08:41:32.344Z,2.00
2019-05-25T08:42:37.857Z,2.20
2019-05-25T08:43:43.378Z,2.30
2019-05-25T08:44:48.899Z,2.30
2019-05-25T08:45:54.394Z,2.20
2019-05-25T08:46:59.931Z,2.30
2019-05-25T08:48:05.421Z,2.10
2019-05-25T08:49:10.944Z,2.20
2019-05-25T08:50:16.449Z,2.30
2019-05-25T08:51:21.957Z,2.10
2019-05-25T08:52:27.473Z,2.10
2019-05-25T08:53:41.662Z,2.20
2019-05-25T08:54:38.508Z,2.00
2019-05-25T08:55:44.027Z,2.00
2019-05-25T08:56:49.519Z,2.50
2019-05-25T08:57:55.059Z,2.30
2019-05-25T08:59:00.557Z,2.20
2019-05-25T09:00:06.078Z,2.40
2019-05-25T09:01:11.597Z,2.00
2019-05-25T09:02:17.102Z,2.20
2019-05-25T09:03:22.605Z,2.30
2019-05-25T09:04:28.122Z,2.30
2019-05-25T09:05:33.641Z,2.40
2019-05-25T09:06:39.143Z,2.20
2019-05-25T09:07:44.660Z,2.60
2019-05-25T09:08:50.173Z,2.40
2019-05-25T09:09:55.686Z,2.30
2019-05-25T09:11:01.221Z,2.60
2019-05-25T09:12:06.725Z,2.40
2019-05-25T09:13:12.231Z,2.20
2019-05-25T09:14:17.744Z,2.50
2019-05-25T09:15:23.258Z,2.20
2019-05-25T09:16:28.773Z,2.30
2019-05-25T09:17:34.288Z,2.60
2019-05-25T09:18:39.796Z,2.40
2019-05-25T09:19:45.314Z,2.40
2019-05-25T09:20:50.830Z,2.40
2019-05-25T09:22:02.651Z,2.60
2019-05-25T09:23:01.853Z,2.70
2019-05-25T09:24:07.364Z,2.80
2019-05-25T09:25:12.880Z,2.50
2019-05-25T09:26:18.397Z,2.60
2019-05-25T09:27:23.907Z,3.10
2019-05-25T09:28:29.421Z,3.30
2019-05-25T09:29:34.943Z,2.70
2019-05-25T09:30:40.445Z,2.30
2019-05-25T09:31:45.964Z,2.50
2019-05-25T09:32:51.480Z,2.50
2019-05-25T09:33:57.002Z,2.70
2019-05-25T09:35:02.515Z,2.60
2019-05-25T09:36:08.019Z,2.60
2019-05-25T09:37:13.534Z,2.60
2019-05-25T09:38:19.098Z,2.70
2019-05-25T09:39:24.563Z,2.70
2019-05-25T09:40:30.080Z,2.70
2019-05-25T09:41:35.602Z,2.70
2019-05-25T09:42:41.136Z,2.90
2019-05-25T09:43:46.607Z,2.60
2019-05-25T09:44:52.129Z,2.60
2019-05-25T09:45:57.662Z,2.60
2019-05-25T09:47:03.161Z,2.70
2019-05-25T09:48:08.669Z,2.30
2019-05-25T09:49:14.181Z,2.80
2019-05-25T09:50:19.698Z,2.70
2019-05-25T09:51:25.214Z,2.70
2019-05-25T09:52:30.728Z,2.30
2019-05-25T09:53:36.240Z,2.80
2019-05-25T09:54:41.757Z,2.80
2019-05-25T09:55:47.276Z,2.90
2019-05-25T09:56:52.800Z,2.70
2019-05-25T09:57:58.304Z,2.80
2019-05-25T09:59:18.995Z,2.90
2019-05-25T10:00:09.320Z,2.90
2019-05-25T10:01:14.835Z,3.50
2019-05-25T10:02:20.378Z,3.00
2019-05-25T10:03:25.864Z,2.90
2019-05-25T10:04:31.380Z,2.80
2019-05-25T10:05:36.901Z,3.20
2019-05-25T10:06:42.414Z,2.90
2019-05-25T10:07:47.929Z,3.00
2019-05-25T10:08:53.444Z,2.80
2019-05-25T10:09:58.955Z,2.90
2019-05-25T10:11:04.468Z,3.00
2019-05-25T10:12:09.982Z,2.70
2019-05-25T10:13:15.498Z,3.00
2019-05-25T10:14:21.042Z,3.00
2019-05-25T10:15:28.455Z,2.90
2019-05-25T10:16:32.045Z,2.80
2019-05-25T10:17:37.563Z,3.10
2019-05-25T10:18:43.086Z,2.90
2019-05-25T10:19:48.585Z,3.00
2019-05-25T10:20:54.107Z,2.90
2019-05-25T10:21:59.801Z,2.80
2019-05-25T10:23:05.131Z,2.80
2019-05-25T10:24:10.644Z,2.90
2019-05-25T10:25:16.164Z,2.80
2019-05-25T10:26:23.122Z,2.80
2019-05-25T10:27:27.186Z,2.90
2019-05-25T10:28:32.710Z,2.80
2019-05-25T10:29:38.222Z,2.60
2019-05-25T10:30:43.742Z,2.80
2019-05-25T10:31:49.249Z,2.80
2019-05-25T10:32:54.765Z,2.90
2019-05-25T10:34:00.276Z,3.10
2019-05-25T10:35:05.789Z,3.10
2019-05-25T10:36:11.333Z,3.10
2019-05-25T10:37:16.827Z,2.80
2019-05-25T10:38:22.335Z,2.80
2019-05-25T10:39:27.863Z,2.80
2019-05-25T10:40:33.360Z,2.70
2019-05-25T10:41:38.880Z,2.80
2019-05-25T10:42:44.399Z,2.80
2019-05-25T10:43:49.918Z,2.90
2019-05-25T10:44:55.425Z,3.10
2019-05-25T10:46:00.944Z,2.60
2019-05-25T10:47:06.471Z,2.90
2019-05-25T10:48:11.988Z,3.10
2019-05-25T10:49:17.519Z,2.90
2019-05-25T10:50:23.018Z,3.10
2019-05-25T10:51:28.525Z,2.90
2019-05-25T10:52:34.026Z,2.80
2019-05-25T10:53:39.557Z,2.60
2019-05-25T10:54:45.057Z,2.80
2019-05-25T10:55:50.581Z,2.90
2019-05-25T10:56:56.098Z,2.80
2019-05-25T10:58:01.606Z,3.10
2019-05-25T10:59:07.131Z,2.90
2019-05-25T11:00:12.637Z,3.10
2019-05-25T11:01:18.153Z,3.00
2019-05-25T11:02:23.663Z,2.70
2019-05-25T11:03:29.179Z,3.10
2019-05-25T11:04:34.714Z,3.00
2019-05-25T11:05:40.219Z,3.10
2019-05-25T11:06:45.740Z,3.00
2019-05-25T11:07:51.250Z,3.20
2019-05-25T11:08:56.757Z,3.20
2019-05-25T11:10:02.286Z,2.90
2019-05-25T11:11:07.795Z,3.30
2019-05-25T11:12:13.305Z,3.40
2019-05-25T11:13:18.816Z,3.20
2019-05-25T11:14:24.337Z,3.20
2019-05-25T11:15:29.866Z,3.00
2019-05-25T11:16:35.368Z,3.40
2019-05-25T11:17:40.888Z,3.60
2019-05-25T11:18:46.396Z,3.30
2019-05-25T11:19:51.931Z,3.40
2019-05-25T11:20:57.430Z,3.40
2019-05-25T11:22:02.950Z,3.20
2019-05-25T11:23:08.463Z,3.10
2019-05-25T11:24:13.974Z,3.30
2019-05-25T11:25:19.497Z,3.30
2019-05-25T11:26:25.016Z,3.60
2019-05-25T11:27:30.539Z,3.60
2019-05-25T11:28:36.033Z,3.50
2019-05-25T11:29:41.556Z,3.50
2019-05-25T11:30:47.065Z,3.30
2019-05-25T11:31:56.712Z,3.20
2019-05-25T11:32:58.112Z,3.20
2019-05-25T11:34:03.616Z,2.90
2019-05-25T11:35:09.129Z,2.80
2019-05-25T11:36:14.657Z,3.20
2019-05-25T11:37:20.157Z,3.30
2019-05-25T11:38:25.680Z,3.20
2019-05-25T11:39:31.192Z,3.50
2019-05-25T11:40:36.710Z,3.60
2019-05-25T11:41:42.225Z,3.80
2019-05-25T11:42:47.747Z,3.70
2019-05-25T11:43:53.246Z,3.60
2019-05-25T11:44:58.785Z,3.50
2019-05-25T11:46:04.285Z,3.50
2019-05-25T11:47:09.804Z,3.20
2019-05-25T11:48:15.312Z,3.60
2019-05-25T11:49:22.767Z,3.50
2019-05-25T11:50:26.356Z,3.60
2019-05-25T11:51:31.864Z,3.40
2019-05-25T11:52:37.377Z,3.50
2019-05-25T11:53:42.897Z,3.80
2019-05-25T11:54:48.410Z,4.00
2019-05-25T11:55:53.925Z,4.00
2019-05-25T11:56:59.447Z,4.30
2019-05-25T11:58:05.040Z,4.20
2019-05-25T11:59:10.480Z,4.30
2019-05-25T12:00:24.787Z,4.20
2019-05-25T12:01:21.514Z,4.20
2019-05-25T12:02:27.023Z,4.20
2019-05-25T12:03:32.538Z,4.30
2019-05-25T12:04:38.101Z,4.40
2019-05-25T12:05:43.568Z,4.50
2019-05-25T12:06:49.083Z,4.00
2019-05-25T12:07:54.610Z,3.80
2019-05-25T12:09:00.108Z,4.10
2019-05-25T12:10:05.644Z,4.40
2019-05-25T12:11:11.141Z,4.40
2019-05-25T12:12:16.663Z,4.40
2019-05-25T12:13:22.177Z,4.30
2019-05-25T12:14:27.697Z,4.60
2019-05-25T12:15:33.211Z,4.50
2019-05-25T12:16:38.715Z,4.70
2019-05-25T12:17:44.242Z,4.80
2019-05-25T12:18:49.757Z,4.50
2019-05-25T12:19:55.275Z,4.80
2019-05-25T12:21:00.827Z,5.10
2019-05-25T12:22:06.298Z,5.00
2019-05-25T12:23:11.999Z,4.80
2019-05-25T12:24:17.334Z,4.50
2019-05-25T12:25:22.856Z,5.20
2019-05-25T12:26:28.372Z,5.40
2019-05-25T12:27:33.876Z,4.70
2019-05-25T12:28:39.410Z,5.00
2019-05-25T12:29:44.911Z,5.00
2019-05-25T12:30:50.427Z,4.50
2019-05-25T12:32:03.593Z,4.40
2019-05-25T12:33:01.457Z,5.00
2019-05-25T12:34:06.982Z,4.90
2019-05-25T12:35:12.487Z,4.80
2019-05-25T12:36:18.014Z,4.90
2019-05-25T12:37:23.518Z,4.60
2019-05-25T12:38:29.041Z,4.30
2019-05-25T12:39:34.554Z,4.00
2019-05-25T12:40:52.760Z,4.00
2019-05-25T12:41:45.582Z,4.10
2019-05-25T12:42:51.103Z,3.80
2019-05-25T12:43:56.615Z,4.00
2019-05-25T12:45:02.131Z,4.10
2019-05-25T12:46:07.640Z,4.20
2019-05-25T12:47:13.164Z,4.50
2019-05-25T12:48:18.679Z,4.60
2019-05-25T12:49:24.203Z,4.70
2019-05-25T12:50:29.710Z,4.40
2019-05-25T12:51:35.229Z,4.50
2019-05-25T12:52:40.763Z,4.40
2019-05-25T12:53:46.255Z,4.40
2019-05-25T12:54:51.770Z,4.30
2019-05-25T12:55:57.288Z,4.10
2019-05-25T12:57:02.993Z,3.90
2019-05-25T12:58:08.335Z,3.70
2019-05-25T12:59:13.846Z,3.80
2019-05-25T13:00:19.357Z,3.40
2019-05-25T13:01:24.866Z,3.70
2019-05-25T13:02:30.406Z,4.20
2019-05-25T13:03:35.916Z,4.10
2019-05-25T13:04:41.428Z,4.10
2019-05-25T13:05:46.944Z,3.90
2019-05-25T13:06:52.445Z,4.20
2019-05-25T13:07:57.966Z,4.40
2019-05-25T13:09:03.481Z,4.00
2019-05-25T13:10:08.994Z,4.30
2019-05-25T13:11:14.515Z,4.30
2019-05-25T13:12:20.032Z,4.20
2019-05-25T13:13:25.535Z,4.50
2019-05-25T13:14:31.061Z,4.30
2019-05-25T13:15:36.572Z,4.30
2019-05-25T13:16:42.122Z,4.40
2019-05-25T13:17:47.618Z,4.10
2019-05-25T13:18:53.126Z,3.90
2019-05-25T13:19:58.716Z,3.70
2019-05-25T13:21:04.147Z,4.10
2019-05-25T13:22:09.679Z,3.90
2019-05-25T13:23:15.193Z,3.90
2019-05-25T13:24:20.711Z,4.00
2019-05-25T13:25:26.225Z,3.60
2019-05-25T13:26:31.750Z,4.20
2019-05-25T13:27:37.253Z,3.90
2019-05-25T13:28:42.767Z,3.60
2019-05-25T13:29:48.280Z,4.00
2019-05-25T13:30:53.804Z,4.00
2019-05-25T13:31:59.331Z,4.20
2019-05-25T13:33:04.842Z,3.80
2019-05-25T13:34:10.349Z,4.00
2019-05-25T13:35:15.943Z,3.80
2019-05-25T13:36:21.378Z,3.70
2019-05-25T13:37:26.893Z,4.00
2019-05-25T13:38:32.422Z,4.10
2019-05-25T13:39:37.932Z,3.60
2019-05-25T13:40:43.439Z,3.40
2019-05-25T13:41:48.959Z,3.40
2019-05-25T13:42:54.476Z,3.90
2019-05-25T13:44:00.003Z,3.80
2019-05-25T13:45:05.514Z,3.30
2019-05-25T13:46:11.052Z,3.50
2019-05-25T13:47:16.546Z,4.00
2019-05-25T13:48:22.066Z,4.00
2019-05-25T13:49:27.584Z,3.90
2019-05-25T13:50:33.088Z,4.20
2019-05-25T13:51:38.607Z,3.50
2019-05-25T13:52:44.125Z,4.00
2019-05-25T13:53:49.636Z,4.00
2019-05-25T13:54:55.165Z,3.50
2019-05-25T13:56:00.675Z,3.30
2019-05-25T13:57:06.193Z,4.00
2019-05-25T13:58:11.711Z,3.80
2019-05-25T13:59:17.251Z,4.30
2019-05-25T14:00:22.739Z,4.30
2019-05-25T14:01:28.961Z,3.80
2019-05-25T14:02:33.782Z,3.80
2019-05-25T14:03:39.326Z,3.90
2019-05-25T14:04:44.804Z,4.00
2019-05-25T14:05:50.320Z,4.00
2019-05-25T14:06:55.838Z,3.70
2019-05-25T14:08:01.374Z,3.70
2019-05-25T14:09:06.884Z,4.10
2019-05-25T14:10:12.405Z,4.50
2019-05-25T14:11:17.915Z,4.10
2019-05-25T14:12:23.425Z,4.00
2019-05-25T14:13:28.948Z,4.10
2019-05-25T14:14:34.457Z,3.90
2019-05-25T14:15:39.977Z,4.00
2019-05-25T14:16:45.495Z,3.90
2019-05-25T14:17:51.127Z,3.70
2019-05-25T14:18:56.523Z,3.90
2019-05-25T14:20:02.046Z,4.00
2019-05-25T14:21:07.551Z,3.70
2019-05-25T14:22:13.073Z,3.70
2019-05-25T14:23:18.594Z,3.50
2019-05-25T14:24:24.101Z,3.60
2019-05-25T14:25:29.636Z,4.10
2019-05-25T14:26:35.137Z,4.00
2019-05-25T14:27:40.679Z,3.60
2019-05-25T14:28:46.194Z,3.90
2019-05-25T14:29:51.688Z,3.50
2019-05-25T14:30:57.204Z,3.40
2019-05-25T14:32:02.719Z,3.30